Time,TemperatureF,DewpointF,PressureIn,WindDirection,WindDirectionDegrees,WindSpeedMPH,WindSpeedGustMPH,Humidity,HourlyPrecipIn,Conditions,Clouds,dailyrainin,SoftwareType,DateUTC
2013-02-28 09:19:00,33.6,32.3,29.55,SW,229,1.0,1.0,95,0.05,,,0.07,Wunderground v.1.15,2013-02-28 14:19:00,
2013-02-28 09:24:00,33.8,32.5,29.56,SW,227,1.0,1.0,95,0.05,,,0.07,Wunderground v.1.15,2013-02-28 14:24:00,
2013-02-28 09:29:00,33.8,32.5,29.55,SW,227,0.0,0.0,95,0.04,,,0.08,Wunderground v.1.15,2013-02-28 14:29:00,
2013-02-28 09:35:00,34.0,32.7,29.55,SW,226,0.0,0.0,95,0.04,,,0.08,Wunderground v.1.15,2013-02-28 14:35:00,
2013-02-28 09:40:00,34.2,32.9,29.55,SW,227,0.0,1.0,95,0.06,,,0.09,Wunderground v.1.15,2013-02-28 14:40:00,
2013-02-28 09:45:00,34.2,32.9,29.55,SW,224,0.0,1.0,95,0.06,,,0.09,Wunderground v.1.15,2013-02-28 14:45:00,
2013-02-28 09:50:00,34.2,32.7,29.56,SW,224,0.0,1.0,94,0.06,,,0.10,Wunderground v.1.15,2013-02-28 14:50:00,
2013-02-28 09:59:00,34.1,32.3,29.56,SSW,211,1.0,1.0,93,0.06,,,0.11,Wunderground v.1.15,2013-02-28 14:59:00,
2013-02-28 10:05:00,34.1,32.3,29.56,SSW,210,1.0,2.0,93,0.06,,,0.11,Wunderground v.1.15,2013-02-28 15:05:00,
2013-02-28 10:10:00,34.2,32.4,29.55,SSW,212,1.0,4.0,93,0.06,,,0.12,Wunderground v.1.15,2013-02-28 15:10:00,
2013-02-28 10:15:00,34.3,32.2,29.55,WSW,252,1.0,4.0,92,0.06,,,0.12,Wunderground v.1.15,2013-02-28 15:15:00,
2013-02-28 10:20:00,34.4,32.3,29.55,SW,236,1.0,4.0,92,0.07,,,0.13,Wunderground v.1.15,2013-02-28 15:20:00,
2013-02-28 10:30:00,34.5,32.1,29.55,WSW,248,1.0,4.0,91,0.06,,,0.14,Wunderground v.1.15,2013-02-28 15:30:00,
2013-02-28 10:39:00,34.6,31.7,29.56,SSW,204,2.0,2.0,89,0.07,,,0.15,Wunderground v.1.15,2013-02-28 15:39:00,
2013-02-28 10:45:00,34.8,31.9,29.56,WSW,240,1.0,4.0,89,0.07,,,0.15,Wunderground v.1.15,2013-02-28 15:45:00,
2013-02-28 10:50:00,34.9,31.7,29.56,SW,225,1.0,4.0,88,0.06,,,0.16,Wunderground v.1.15,2013-02-28 15:50:00,
2013-02-28 10:55:00,35.0,31.8,29.56,SW,218,1.0,4.0,88,0.08,,,0.17,Wunderground v.1.15,2013-02-28 15:55:00,
2013-02-28 11:00:00,35.1,31.6,29.55,WSW,246,1.0,4.0,87,0.08,,,0.17,Wunderground v.1.15,2013-02-28 16:00:00,
2013-02-28 11:05:00,35.1,31.6,29.55,West,260,1.0,4.0,87,0.07,,,0.18,Wunderground v.1.15,2013-02-28 16:05:00,
2013-02-28 11:14:00,35.4,31.6,29.56,WSW,238,1.0,4.0,86,0.08,,,0.19,Wunderground v.1.15,2013-02-28 16:14:00,
2013-02-28 11:20:00,35.4,31.3,29.56,West,279,1.0,4.0,85,0.07,,,0.20,Wunderground v.1.15,2013-02-28 16:20:00,
2013-02-28 11:29:00,35.4,31.3,29.56,WSW,257,1.0,1.0,85,0.07,,,0.21,Wunderground v.1.15,2013-02-28 16:29:00,
2013-02-28 11:34:00,35.6,31.5,29.56,West,261,1.0,3.0,85,0.07,,,0.21,Wunderground v.1.15,2013-02-28 16:34:00,
2013-02-28 11:39:00,35.7,31.6,29.56,West,259,1.0,4.0,85,0.06,,,0.22,Wunderground v.1.15,2013-02-28 16:39:00,
2013-02-28 11:45:00,35.8,31.7,29.56,WSW,252,1.0,4.0,85,0.07,,,0.22,Wunderground v.1.15,2013-02-28 16:45:00,
2013-02-28 11:50:00,35.9,31.8,29.56,West,263,1.0,1.0,85,0.07,,,0.23,Wunderground v.1.15,2013-02-28 16:50:00,
2013-02-28 11:55:00,35.8,31.4,29.56,WSW,250,1.0,3.0,84,0.07,,,0.24,Wunderground v.1.15,2013-02-28 16:55:00,
2013-02-28 12:00:00,35.8,31.4,29.56,WSW,241,1.0,1.0,84,0.07,,,0.24,Wunderground v.1.15,2013-02-28 17:00:00,
2013-02-28 12:10:00,35.7,31.6,29.56,West,277,1.0,4.0,85,0.07,,,0.25,Wunderground v.1.15,2013-02-28 17:10:00,
2013-02-28 12:19:00,35.4,31.3,29.56,West,263,1.0,1.0,85,0.07,,,0.26,Wunderground v.1.15,2013-02-28 17:19:00,
2013-02-28 12:25:00,35.4,31.3,29.56,WNW,284,1.0,4.0,85,0.07,,,0.27,Wunderground v.1.15,2013-02-28 17:25:00,
2013-02-28 12:30:00,35.4,31.3,29.56,WNW,282,1.0,1.0,85,0.06,,,0.27,Wunderground v.1.15,2013-02-28 17:30:00,
2013-02-28 12:35:00,35.5,31.7,29.56,West,281,0.0,4.0,86,0.06,,,0.28,Wunderground v.1.15,2013-02-28 17:35:00,
2013-02-28 12:40:00,35.5,31.7,29.56,West,276,0.0,4.0,86,0.06,,,0.28,Wunderground v.1.15,2013-02-28 17:40:00,
2013-02-28 12:49:00,35.4,31.6,29.56,SW,231,0.0,4.0,86,0.06,,,0.30,Wunderground v.1.15,2013-02-28 17:49:00,
2013-02-28 12:55:00,35.4,31.6,29.56,West,263,1.0,4.0,86,0.06,,,0.30,Wunderground v.1.15,2013-02-28 17:55:00,
2013-02-28 13:00:00,35.3,31.5,29.56,WSW,238,1.0,1.0,86,0.07,,,0.31,Wunderground v.1.15,2013-02-28 18:00:00,
2013-02-28 13:05:00,35.3,31.8,29.56,WSW,248,1.0,4.0,87,0.07,,,0.31,Wunderground v.1.15,2013-02-28 18:05:00,
2013-02-28 13:10:00,35.5,32.0,29.56,West,263,1.0,4.0,87,0.07,,,0.32,Wunderground v.1.15,2013-02-28 18:10:00,
2013-02-28 13:15:00,35.9,32.4,29.56,WSW,257,1.0,4.0,87,0.09,,,0.33,Wunderground v.1.15,2013-02-28 18:15:00,
2013-02-28 13:20:00,36.3,32.8,29.56,WSW,257,1.0,4.0,87,0.09,,,0.34,Wunderground v.1.15,2013-02-28 18:20:00,
2013-02-28 13:30:00,36.2,32.1,29.56,WSW,257,2.0,4.0,85,0.12,,,0.35,Wunderground v.1.15,2013-02-28 18:30:00,
2013-02-28 13:35:00,36.1,32.0,29.56,WSW,252,1.0,4.0,85,0.09,,,0.36,Wunderground v.1.15,2013-02-28 18:35:00,
2013-02-28 13:40:00,36.2,32.1,29.56,WSW,248,1.0,4.0,85,0.10,,,0.37,Wunderground v.1.15,2013-02-28 18:40:00,
2013-02-28 13:45:00,35.8,31.4,29.56,SW,217,1.0,4.0,84,0.08,,,0.37,Wunderground v.1.15,2013-02-28 18:45:00,
2013-02-28 13:54:00,35.4,31.3,29.56,WSW,242,1.0,4.0,85,0.07,,,0.39,Wunderground v.1.15,2013-02-28 18:54:00,
2013-02-28 13:59:00,35.4,31.3,29.56,WSW,254,0.0,4.0,85,0.07,,,0.39,Wunderground v.1.15,2013-02-28 18:59:00,
2013-02-28 14:04:00,35.3,31.2,29.56,WSW,258,1.0,4.0,85,0.05,,,0.39,Wunderground v.1.15,2013-02-28 19:04:00,
2013-02-28 14:10:00,35.3,31.2,29.56,West,259,1.0,4.0,85,0.04,,,0.40,Wunderground v.1.15,2013-02-28 19:10:00,
2013-02-28 14:15:00,35.3,31.2,29.56,WSW,257,1.0,4.0,85,0.04,,,0.40,Wunderground v.1.15,2013-02-28 19:15:00,
2013-02-28 14:20:00,35.3,31.2,29.56,WSW,252,1.0,1.0,85,0.05,,,0.41,Wunderground v.1.15,2013-02-28 19:20:00,
2013-02-28 14:25:00,35.4,31.3,29.56,WSW,252,0.0,4.0,85,0.05,,,0.41,Wunderground v.1.15,2013-02-28 19:25:00,
2013-02-28 14:30:00,35.6,31.5,29.56,WSW,252,0.0,4.0,85,0.05,,,0.41,Wunderground v.1.15,2013-02-28 19:30:00,
2013-02-28 14:39:00,35.7,31.6,29.56,WSW,252,1.0,1.0,85,0.04,,,0.42,Wunderground v.1.15,2013-02-28 19:39:00,
2013-02-28 14:50:00,35.7,31.3,29.57,WSW,254,1.0,1.0,84,0.05,,,0.43,Wunderground v.1.15,2013-02-28 19:50:00,
2013-02-28 14:55:00,35.4,31.0,29.57,West,260,1.0,2.0,84,0.05,,,0.43,Wunderground v.1.15,2013-02-28 19:55:00,
2013-02-28 15:00:00,35.2,30.9,29.57,West,259,1.0,4.0,84,0.05,,,0.43,Wunderground v.1.15,2013-02-28 20:00:00,
2013-02-28 15:09:00,35.2,30.9,29.57,West,259,1.0,1.0,84,0.00,,,0.44,Wunderground v.1.15,2013-02-28 20:09:00,
2013-02-28 15:14:00,35.0,30.7,29.57,West,260,0.0,4.0,84,0.00,,,0.44,Wunderground v.1.15,2013-02-28 20:14:00,
2013-02-28 15:20:00,34.9,30.8,29.58,West,267,0.0,4.0,85,0.00,,,0.44,Wunderground v.1.15,2013-02-28 20:20:00,
2013-02-28 15:25:00,34.8,30.8,29.57,West,266,0.0,4.0,85,0.00,,,0.44,Wunderground v.1.15,2013-02-28 20:25:00,
2013-02-28 15:30:00,34.7,30.7,29.57,West,264,1.0,4.0,85,0.00,,,0.44,Wunderground v.1.15,2013-02-28 20:30:00,
2013-02-28 15:40:00,34.6,30.8,29.58,West,261,1.0,1.0,86,0.00,,,0.45,Wunderground v.1.15,2013-02-28 20:40:00,
2013-02-28 15:45:00,34.6,31.1,29.58,West,259,0.0,4.0,87,0.00,,,0.45,Wunderground v.1.15,2013-02-28 20:45:00,
2013-02-28 15:50:00,34.6,31.1,29.58,West,269,1.0,1.0,87,0.00,,,0.45,Wunderground v.1.15,2013-02-28 20:50:00,
2013-02-28 15:55:00,34.5,31.0,29.58,West,271,1.0,2.0,87,0.00,,,0.45,Wunderground v.1.15,2013-02-28 20:55:00,
2013-02-28 16:00:00,34.5,31.0,29.58,West,271,1.0,4.0,87,0.00,,,0.45,Wunderground v.1.15,2013-02-28 21:00:00,
2013-02-28 16:09:00,34.5,31.0,29.58,WNW,298,1.0,1.0,87,0.00,,,0.46,Wunderground v.1.15,2013-02-28 21:09:00,
2013-02-28 16:15:00,34.4,30.9,29.58,West,275,1.0,4.0,87,0.00,,,0.46,Wunderground v.1.15,2013-02-28 21:15:00,
2013-02-28 16:20:00,34.5,31.0,29.58,West,261,1.0,1.0,87,0.00,,,0.46,Wunderground v.1.15,2013-02-28 21:20:00,
2013-02-28 16:25:00,34.4,30.9,29.59,West,267,2.0,2.0,87,0.00,,,0.46,Wunderground v.1.15,2013-02-28 21:25:00,
2013-02-28 16:30:00,34.4,30.9,29.58,West,261,2.0,2.0,87,0.00,,,0.46,Wunderground v.1.15,2013-02-28 21:30:00,
2013-02-28 16:35:00,34.4,30.9,29.59,WNW,302,2.0,4.0,87,0.00,,,0.47,Wunderground v.1.15,2013-02-28 21:35:00,
2013-02-28 16:44:00,34.1,30.9,29.59,NW,305,1.0,4.0,88,0.00,,,0.47,Wunderground v.1.15,2013-02-28 21:44:00,
2013-02-28 16:49:00,33.9,30.7,29.60,NW,306,1.0,4.0,88,0.00,,,0.47,Wunderground v.1.15,2013-02-28 21:49:00,
2013-02-28 16:55:00,33.8,30.6,29.60,NW,306,1.0,4.0,88,0.00,,,0.47,Wunderground v.1.15,2013-02-28 21:55:00,
2013-02-28 17:00:00,33.7,30.5,29.60,NW,306,1.0,1.0,88,0.00,,,0.47,Wunderground v.1.15,2013-02-28 22:00:00,
2013-02-28 17:05:00,33.7,30.8,29.60,NW,309,1.0,4.0,89,0.00,,,0.47,Wunderground v.1.15,2013-02-28 22:05:00,
2013-02-28 17:10:00,33.6,30.7,29.61,NW,309,1.0,1.0,89,0.00,,,0.47,Wunderground v.1.15,2013-02-28 22:10:00,
2013-02-28 17:19:00,33.5,30.6,29.61,NW,309,0.0,4.0,89,0.00,,,0.47,Wunderground v.1.15,2013-02-28 22:19:00,
2013-02-28 17:25:00,33.5,30.6,29.61,NW,309,1.0,4.0,89,0.00,,,0.47,Wunderground v.1.15,2013-02-28 22:25:00,
2013-02-28 17:30:00,33.5,30.6,29.61,NW,321,1.0,1.0,89,0.00,,,0.47,Wunderground v.1.15,2013-02-28 22:30:00,
2013-02-28 17:35:00,33.5,30.9,29.62,NW,321,1.0,4.0,90,0.00,,,0.47,Wunderground v.1.15,2013-02-28 22:35:00,
2013-02-28 17:40:00,33.4,30.8,29.62,NW,319,0.0,4.0,90,0.00,,,0.48,Wunderground v.1.15,2013-02-28 22:40:00,
2013-02-28 17:49:00,33.4,30.8,29.62,NW,319,1.0,1.0,90,0.00,,,0.48,Wunderground v.1.15,2013-02-28 22:49:00,
2013-02-28 17:55:00,33.3,30.7,29.62,NW,314,1.0,4.0,90,0.00,,,0.48,Wunderground v.1.15,2013-02-28 22:55:00,
2013-02-28 18:00:00,33.2,30.6,29.63,NW,315,1.0,1.0,90,0.00,,,0.48,Wunderground v.1.15,2013-02-28 23:00:00,
2013-02-28 18:05:00,33.2,30.6,29.63,NW,315,0.0,4.0,90,0.00,,,0.48,Wunderground v.1.15,2013-02-28 23:05:00,
2013-02-28 18:10:00,33.1,30.5,29.63,NW,315,0.0,4.0,90,0.00,,,0.48,Wunderground v.1.15,2013-02-28 23:10:00,
2013-02-28 18:15:00,33.1,30.5,29.63,NW,315,0.0,4.0,90,0.00,,,0.48,Wunderground v.1.15,2013-02-28 23:15:00,
2013-02-28 18:20:00,33.1,30.5,29.64,NW,315,0.0,4.0,90,0.00,,,0.48,Wunderground v.1.15,2013-02-28 23:20:00,
2013-02-28 18:29:00,33.1,30.5,29.64,NW,315,0.0,4.0,90,0.00,,,0.48,Wunderground v.1.15,2013-02-28 23:29:00,
2013-02-28 18:35:00,33.1,30.5,29.65,NW,313,0.0,4.0,90,0.00,,,0.48,Wunderground v.1.15,2013-02-28 23:35:00,
2013-02-28 18:40:00,33.1,30.5,29.64,NW,313,1.0,4.0,90,0.00,,,0.48,Wunderground v.1.15,2013-02-28 23:40:00,
2013-02-28 18:45:00,33.1,30.5,29.65,NW,304,1.0,4.0,90,0.00,,,0.48,Wunderground v.1.15,2013-02-28 23:45:00,
2013-02-28 18:50:00,33.2,30.6,29.65,WNW,284,1.0,1.0,90,0.00,,,0.48,Wunderground v.1.15,2013-02-28 23:50:00,
2013-02-28 18:59:00,33.1,30.5,29.65,WNW,284,1.0,4.0,90,0.00,,,0.48,Wunderground v.1.15,2013-02-28 23:59:00,
2013-02-28 19:05:00,33.2,30.6,29.65,WNW,286,1.0,4.0,90,0.00,,,0.48,Wunderground v.1.15,2013-03-01 00:05:00,
2013-02-28 19:10:00,33.2,30.6,29.65,WNW,286,1.0,4.0,90,0.00,,,0.48,Wunderground v.1.15,2013-03-01 00:10:00,
2013-02-28 19:15:00,33.1,30.5,29.65,WNW,298,1.0,4.0,90,0.00,,,0.48,Wunderground v.1.15,2013-03-01 00:15:00,
2013-02-28 19:20:00,33.1,30.5,29.66,WNW,296,1.0,1.0,90,0.00,,,0.48,Wunderground v.1.15,2013-03-01 00:20:00,
2013-02-28 19:25:00,33.1,30.8,29.66,WNW,296,1.0,4.0,91,0.00,,,0.48,Wunderground v.1.15,2013-03-01 00:25:00,
2013-02-28 19:30:00,33.0,30.7,29.65,WNW,296,0.0,4.0,91,0.00,,,0.48,Wunderground v.1.15,2013-03-01 00:30:00,
2013-02-28 19:39:00,33.0,30.7,29.66,WNW,296,0.0,4.0,91,0.00,,,0.48,Wunderground v.1.15,2013-03-01 00:39:00,
2013-02-28 19:45:00,33.0,30.7,29.66,WNW,296,0.0,4.0,91,0.00,,,0.48,Wunderground v.1.15,2013-03-01 00:45:00,
2013-02-28 19:50:00,33.0,30.7,29.66,WNW,296,0.0,4.0,91,0.00,,,0.48,Wunderground v.1.15,2013-03-01 00:50:00,
2013-02-28 20:00:00,32.9,30.6,29.66,WNW,296,0.0,4.0,91,0.00,,,0.48,Wunderground v.1.15,2013-03-01 01:00:00,
2013-02-28 20:05:00,32.9,30.6,29.66,WNW,296,0.0,4.0,91,0.00,,,0.48,Wunderground v.1.15,2013-03-01 01:05:00,
2013-02-28 20:14:00,33.0,30.7,29.66,WNW,298,1.0,4.0,91,0.00,,,0.49,Wunderground v.1.15,2013-03-01 01:14:00,
2013-02-28 20:20:00,33.0,30.7,29.67,WNW,298,1.0,4.0,91,0.00,,,0.49,Wunderground v.1.15,2013-03-01 01:20:00,
2013-02-28 20:25:00,33.0,30.7,29.67,WNW,297,1.0,4.0,91,0.00,,,0.49,Wunderground v.1.15,2013-03-01 01:25:00,
2013-02-28 20:30:00,33.0,30.9,29.67,WNW,303,1.0,1.0,92,0.00,,,0.49,Wunderground v.1.15,2013-03-01 01:30:00,
2013-02-28 20:40:00,33.0,30.7,29.67,WNW,303,0.0,4.0,91,0.00,,,0.49,Wunderground v.1.15,2013-03-01 01:40:00,
2013-02-28 20:45:00,32.9,30.6,29.67,WNW,303,0.0,4.0,91,0.00,,,0.49,Wunderground v.1.15,2013-03-01 01:45:00,
2013-02-28 20:54:00,32.8,30.7,29.67,WNW,303,0.0,4.0,92,0.00,,,0.49,Wunderground v.1.15,2013-03-01 01:54:00,
2013-02-28 21:00:00,32.7,30.6,29.67,WNW,303,0.0,4.0,92,0.00,,,0.49,Wunderground v.1.15,2013-03-01 02:00:00,
2013-02-28 21:05:00,32.7,30.6,29.67,WNW,303,0.0,4.0,92,0.00,,,0.49,Wunderground v.1.15,2013-03-01 02:05:00,
2013-02-28 21:10:00,32.6,30.5,29.67,WNW,303,0.0,4.0,92,0.00,,,0.49,Wunderground v.1.15,2013-03-01 02:10:00,
2013-02-28 21:15:00,32.6,30.5,29.68,WNW,303,0.0,4.0,92,0.00,,,0.49,Wunderground v.1.15,2013-03-01 02:15:00,
2013-02-28 21:20:00,32.5,30.4,29.68,WNW,303,0.0,4.0,92,0.00,,,0.49,Wunderground v.1.15,2013-03-01 02:20:00,
2013-02-28 21:25:00,32.5,30.4,29.68,WNW,303,0.0,4.0,92,0.00,,,0.49,Wunderground v.1.15,2013-03-01 02:25:00,
2013-02-28 21:34:00,32.5,30.4,29.68,WNW,303,0.0,4.0,92,0.00,,,0.49,Wunderground v.1.15,2013-03-01 02:34:00,
2013-02-28 21:40:00,32.5,30.4,29.69,WNW,303,0.0,4.0,92,0.00,,,0.49,Wunderground v.1.15,2013-03-01 02:40:00,
2013-02-28 21:44:00,32.5,30.4,29.69,WNW,303,0.0,4.0,92,0.00,,,0.49,Wunderground v.1.15,2013-03-01 02:44:00,
2013-02-28 21:50:00,32.5,30.4,29.69,WNW,303,0.0,4.0,92,0.00,,,0.49,Wunderground v.1.15,2013-03-01 02:50:00,
2013-02-28 21:55:00,32.5,30.4,29.69,WNW,303,0.0,4.0,92,0.00,,,0.49,Wunderground v.1.15,2013-03-01 02:55:00,
2013-02-28 22:00:00,32.5,30.4,29.69,WNW,303,0.0,4.0,92,0.00,,,0.49,Wunderground v.1.15,2013-03-01 03:00:00,
2013-02-28 22:09:00,32.4,30.6,29.69,WNW,303,0.0,4.0,93,0.00,,,0.49,Wunderground v.1.15,2013-03-01 03:09:00,
2013-02-28 22:15:00,32.3,30.5,29.69,WNW,303,0.0,4.0,93,0.00,,,0.49,Wunderground v.1.15,2013-03-01 03:15:00,
2013-02-28 22:20:00,32.3,30.2,29.69,NW,304,0.0,4.0,92,0.00,,,0.49,Wunderground v.1.15,2013-03-01 03:20:00,
2013-02-28 22:25:00,32.3,30.5,29.69,NW,304,1.0,4.0,93,0.00,,,0.49,Wunderground v.1.15,2013-03-01 03:25:00,
2013-02-28 22:30:00,32.3,30.5,29.69,NW,304,1.0,1.0,93,0.00,,,0.49,Wunderground v.1.15,2013-03-01 03:30:00,
2013-02-28 22:35:00,32.2,30.4,29.69,NW,304,0.0,4.0,93,0.00,,,0.49,Wunderground v.1.15,2013-03-01 03:35:00,
2013-02-28 22:44:00,32.1,30.3,29.69,NW,304,0.0,4.0,93,0.00,,,0.49,Wunderground v.1.15,2013-03-01 03:44:00,
2013-02-28 22:50:00,32.1,30.3,29.69,NW,304,0.0,4.0,93,0.00,,,0.49,Wunderground v.1.15,2013-03-01 03:50:00,
2013-02-28 22:54:00,32.1,30.3,29.69,NW,304,0.0,4.0,93,0.00,,,0.49,Wunderground v.1.15,2013-03-01 03:54:00,
2013-02-28 23:00:00,32.1,30.3,29.69,NW,304,0.0,4.0,93,0.00,,,0.49,Wunderground v.1.15,2013-03-01 04:00:00,
2013-02-28 23:05:00,32.1,30.3,29.69,NW,304,0.0,4.0,93,0.00,,,0.49,Wunderground v.1.15,2013-03-01 04:05:00,
2013-02-28 23:10:00,32.1,30.3,29.69,NW,304,0.0,4.0,93,0.00,,,0.49,Wunderground v.1.15,2013-03-01 04:10:00,
2013-02-28 23:15:00,32.1,30.3,29.69,NW,304,0.0,4.0,93,0.00,,,0.49,Wunderground v.1.15,2013-03-01 04:15:00,
2013-02-28 23:24:00,32.0,30.2,29.70,NW,304,0.0,4.0,93,0.00,,,0.49,Wunderground v.1.15,2013-03-01 04:24:00,
2013-02-28 23:29:00,32.0,30.2,29.70,NW,304,0.0,4.0,93,0.00,,,0.49,Wunderground v.1.15,2013-03-01 04:29:00,
2013-02-28 23:35:00,32.0,30.2,29.70,NW,304,0.0,4.0,93,0.00,,,0.49,Wunderground v.1.15,2013-03-01 04:35:00,
2013-02-28 23:40:00,32.0,30.2,29.70,NW,304,0.0,4.0,93,0.00,,,0.49,Wunderground v.1.15,2013-03-01 04:40:00,
2013-02-28 23:45:00,32.1,30.3,29.70,NW,306,0.0,4.0,93,0.00,,,0.49,Wunderground v.1.15,2013-03-01 04:45:00,
2013-02-28 23:50:00,32.1,30.3,29.70,NW,306,0.0,4.0,93,0.00,,,0.49,Wunderground v.1.15,2013-03-01 04:50:00,
2013-02-28 23:55:00,32.1,30.3,29.70,NW,306,0.0,4.0,93,0.00,,,0.49,Wunderground v.1.15,2013-03-01 04:55:00,